createdAt,value
2023-05-03T00:02:28.608Z,86216.53
2023-05-03T00:04:56.106Z,86219.97
2023-05-03T00:07:23.215Z,86222.09
2023-05-03T00:09:50.365Z,86182.13
2023-05-03T00:12:17.396Z,86206.28
2023-05-03T00:14:45.897Z,86198.84
2023-05-03T00:17:13.307Z,86253.25
2023-05-03T00:19:40.733Z,86255.38
2023-05-03T00:22:08.186Z,86198.22
2023-05-03T00:24:35.623Z,86248.53
2023-05-03T00:27:04.349Z,86192.75
2023-05-03T00:29:31.310Z,86200.38
2023-05-03T00:31:58.295Z,86243.88
2023-05-03T00:34:25.567Z,86184.63
2023-05-03T00:36:52.888Z,86188.06
2023-05-03T00:39:19.744Z,86218.38
2023-05-03T00:41:46.659Z,86149.41
2023-05-03T00:44:13.853Z,86232.13
2023-05-03T00:46:45.475Z,86211.34
2023-05-03T00:49:12.837Z,86155.00
2023-05-03T00:51:42.157Z,86212.13
2023-05-03T00:54:11.005Z,86179.75
2023-05-03T00:56:50.444Z,86103.38
2023-05-03T00:59:19.066Z,86211.44
2023-05-03T01:01:53.487Z,86212.81
2023-05-03T01:04:22.154Z,86200.38
2023-05-03T01:07:18.303Z,86187.91
2023-05-03T01:10:05.015Z,86183.78
2023-05-03T01:12:44.357Z,86062.59
2023-05-03T01:15:26.307Z,86168.53
2023-05-03T01:18:07.983Z,86154.75
2023-05-03T01:20:38.587Z,86169.88
2023-05-03T01:23:18.980Z,86106.50
2023-05-03T01:25:45.887Z,86156.66
2023-05-03T01:28:12.860Z,86161.50
2023-05-03T01:30:40.793Z,86103.78
2023-05-03T01:33:23.019Z,86149.22
2023-05-03T01:36:12.155Z,86124.59
2023-05-03T01:38:39.810Z,86141.06
2023-05-03T01:41:11.215Z,86110.81
2023-05-03T01:43:39.705Z,86125.22
2023-05-03T01:46:07.632Z,86144.00
2023-05-03T01:48:34.684Z,86124.00
2023-05-03T01:51:02.711Z,86146.00
2023-05-03T01:53:29.646Z,86143.91
2023-05-03T01:55:56.620Z,86050.97
2023-05-03T01:58:23.592Z,86141.81
2023-05-03T02:00:50.606Z,86092.38
2023-05-03T02:03:18.013Z,86105.44
2023-05-03T02:05:46.404Z,86135.00
2023-05-03T02:08:13.423Z,86123.31
2023-05-03T02:10:40.507Z,86122.00
2023-05-03T02:13:07.525Z,86066.25
2023-05-03T02:15:34.642Z,86148.09
2023-05-03T02:18:03.318Z,86109.56
2023-05-03T02:20:35.512Z,86148.06
2023-05-03T02:23:02.562Z,86150.84
2023-05-03T02:25:29.894Z,86144.63
2023-05-03T02:27:56.915Z,86000.09
2023-05-03T02:30:24.703Z,86087.53
2023-05-03T02:32:51.704Z,86102.69
2023-05-03T02:35:19.751Z,86157.75
2023-05-03T02:37:46.699Z,86155.75
2023-05-03T02:40:14.116Z,86106.16
2023-05-03T02:42:44.031Z,86126.09
2023-05-03T02:45:11.521Z,86161.97
2023-05-03T02:47:39.377Z,86166.06
2023-05-03T02:50:07.402Z,86122.56
2023-05-03T02:52:37.658Z,86087.47
2023-05-03T02:55:05.815Z,86169.47
2023-05-03T02:57:33.059Z,86120.50
2023-05-03T03:00:00.316Z,86088.88
2023-05-03T03:02:27.569Z,86173.66
2023-05-03T03:04:55.029Z,86175.75
2023-05-03T03:07:23.102Z,86142.63
2023-05-03T03:09:53.580Z,86173.66
2023-05-03T03:12:21.335Z,86146.81
2023-05-03T03:14:48.418Z,86115.22
2023-05-03T03:17:15.454Z,86180.72
2023-05-03T03:19:42.394Z,86155.84
2023-05-03T03:22:09.510Z,86155.16
2023-05-03T03:24:36.973Z,86124.22
2023-05-03T03:27:04.449Z,86162.06
2023-05-03T03:29:33.267Z,86178.59
2023-05-03T03:32:01.392Z,86179.97
2023-05-03T03:34:28.398Z,85988.53
2023-05-03T03:36:55.562Z,86007.88
2023-05-03T03:39:22.625Z,86188.41
2023-05-03T03:41:49.720Z,86169.81
2023-05-03T03:44:16.827Z,86159.50
2023-05-03T03:46:44.394Z,86164.31
2023-05-03T03:49:11.775Z,86217.44
2023-05-03T03:51:39.939Z,86168.47
2023-05-03T03:54:07.003Z,86200.88
2023-05-03T03:56:37.774Z,86148.44
2023-05-03T03:59:05.266Z,86211.22
2023-05-03T04:01:32.530Z,86196.00
2023-05-03T04:03:59.624Z,86174.59
2023-05-03T04:06:27.245Z,86258.81
2023-05-03T04:08:56.114Z,86174.53
2023-05-03T04:11:23.962Z,86264.97
2023-05-03T04:13:55.838Z,86209.66
2023-05-03T04:16:22.982Z,86292.47
2023-05-03T04:18:50.290Z,86266.91
2023-05-03T04:21:17.432Z,86308.28
2023-05-03T04:23:44.612Z,86236.34
2023-05-03T04:26:27.505Z,86308.34
2023-05-03T04:28:59.944Z,86253.16
2023-05-03T04:31:27.105Z,86255.94
2023-05-03T04:33:55.374Z,86269.06
2023-05-03T04:36:26.011Z,86294.63
2023-05-03T04:38:54.700Z,86257.34
2023-05-03T04:41:24.567Z,86250.44
2023-05-03T04:43:52.397Z,86113.81
2023-05-03T04:46:20.706Z,86269.81
2023-05-03T04:48:48.456Z,86259.47
2023-05-03T04:51:15.588Z,86305.06
2023-05-03T04:53:43.844Z,86309.91
2023-05-03T04:56:16.262Z,86185.66
2023-05-03T04:58:44.706Z,86287.13
2023-05-03T05:01:14.617Z,86169.78
2023-05-03T05:03:41.904Z,86268.50
2023-05-03T05:06:15.709Z,86037.44
2023-05-03T05:08:42.881Z,86288.50
2023-05-03T05:11:13.904Z,86168.44
2023-05-03T05:13:41.020Z,86098.81
2023-05-03T05:16:08.260Z,86229.81
2023-05-03T05:18:36.358Z,86049.19
2023-05-03T05:21:06.278Z,86196.72
2023-05-03T05:23:35.359Z,86224.28
2023-05-03T05:26:03.035Z,86222.91
2023-05-03T05:28:37.740Z,86168.41
2023-05-03T05:31:05.049Z,86175.97
2023-05-03T05:33:32.447Z,86193.94
2023-05-03T05:36:00.174Z,86242.91
2023-05-03T05:38:28.047Z,86151.16
2023-05-03T05:40:57.901Z,86223.53
2023-05-03T05:43:25.166Z,86177.31
2023-05-03T05:45:52.219Z,86186.94
2023-05-03T05:48:20.439Z,86232.41
2023-05-03T05:50:48.967Z,86147.66
2023-05-03T05:53:16.296Z,86056.00
2023-05-03T05:55:53.639Z,86212.38
2023-05-03T05:58:21.125Z,86186.84
2023-05-03T06:00:52.199Z,86101.47
2023-05-03T06:03:19.331Z,85991.25
2023-05-03T06:05:49.469Z,86237.06
2023-05-03T06:08:16.434Z,86104.81
2023-05-03T06:10:44.093Z,86124.75
2023-05-03T06:13:11.418Z,86130.22
2023-05-03T06:15:38.487Z,86201.16
2023-05-03T06:18:05.638Z,86130.13
2023-05-03T06:20:32.984Z,86055.88
2023-05-03T06:23:00.356Z,86028.34
2023-05-03T06:25:27.616Z,86002.22
2023-05-03T06:27:54.720Z,86180.34
2023-05-03T06:30:25.993Z,86094.28
2023-05-03T06:32:53.644Z,86062.59
2023-05-03T06:35:22.143Z,86012.97
2023-05-03T06:37:50.148Z,86005.31
2023-05-03T06:40:17.162Z,86168.31
2023-05-03T06:42:45.404Z,86171.84
2023-05-03T06:45:18.778Z,86029.41
2023-05-03T06:47:46.259Z,86170.34
2023-05-03T06:50:14.134Z,86045.75
2023-05-03T06:52:41.711Z,86230.78
2023-05-03T06:55:09.814Z,86115.19
2023-05-03T06:57:36.912Z,86245.13
2023-05-03T07:00:07.431Z,86129.56
2023-05-03T07:02:34.981Z,86151.47
2023-05-03T07:05:02.157Z,86194.91
2023-05-03T07:07:29.584Z,86195.38
2023-05-03T07:09:56.781Z,86171.31
2023-05-03T07:12:27.835Z,86208.50
2023-05-03T07:14:55.715Z,86238.03
2023-05-03T07:17:23.417Z,86201.63
2023-05-03T07:19:51.245Z,86252.59
2023-05-03T07:22:21.473Z,86181.72
2023-05-03T07:24:48.640Z,85930.22
2023-05-03T07:27:15.730Z,86259.03
2023-05-03T07:29:42.732Z,86246.63
2023-05-03T07:32:09.942Z,86212.97
2023-05-03T07:34:37.117Z,86279.09
2023-05-03T07:37:04.243Z,86133.78
2023-05-03T07:39:31.234Z,86288.06
2023-05-03T07:41:58.363Z,86045.06
2023-05-03T07:44:25.605Z,86098.00
2023-05-03T07:46:52.608Z,86078.78
2023-05-03T07:49:19.831Z,85985.34
2023-05-03T07:51:46.819Z,86210.19
2023-05-03T07:54:13.816Z,86270.03
2023-05-03T07:56:41.748Z,86234.22
2023-05-03T07:59:10.450Z,86110.34
2023-05-03T08:01:38.352Z,86236.84
2023-05-03T08:04:06.018Z,86278.16
2023-05-03T08:06:35.730Z,86250.56
2023-05-03T08:09:04.901Z,86235.34
2023-05-03T08:11:32.070Z,86173.91
2023-05-03T08:13:59.144Z,86265.31
2023-05-03T08:16:26.356Z,86164.16
2023-05-03T08:18:53.526Z,86244.00
2023-05-03T08:21:22.270Z,86235.28
2023-05-03T08:23:49.344Z,86071.44
2023-05-03T08:26:16.418Z,86225.38
2023-05-03T08:28:43.512Z,86268.13
2023-05-03T08:31:10.659Z,86193.88
2023-05-03T08:33:37.800Z,86290.38
2023-05-03T08:36:05.290Z,86271.13
2023-05-03T08:38:33.699Z,86125.28
2023-05-03T08:41:18.785Z,86092.31
2023-05-03T08:43:48.690Z,85994.75
2023-05-03T08:46:16.260Z,86068.22
2023-05-03T08:48:45.152Z,86093.75
2023-05-03T08:51:12.550Z,86049.72
2023-05-03T08:53:39.931Z,86218.63
2023-05-03T08:56:08.619Z,86150.44
2023-05-03T08:58:44.375Z,86275.50
2023-05-03T09:01:11.526Z,86195.59
2023-05-03T09:03:39.950Z,86259.97
2023-05-03T09:06:21.084Z,86033.16
2023-05-03T09:08:48.361Z,86090.78
2023-05-03T09:11:26.861Z,86265.81
2023-05-03T09:13:54.597Z,86203.72
2023-05-03T09:16:42.717Z,86264.06
2023-05-03T09:19:12.503Z,86233.56
2023-05-03T09:21:41.330Z,86218.47
2023-05-03T09:24:15.797Z,86290.25
2023-05-03T09:26:44.095Z,86225.47
2023-05-03T09:29:11.783Z,86236.78
2023-05-03T09:31:59.654Z,86269.94
2023-05-03T09:34:26.788Z,86235.66
2023-05-03T09:36:54.091Z,86226.09
2023-05-03T09:39:21.190Z,86233.41
2023-05-03T09:41:48.209Z,86243.72
2023-05-03T09:44:15.479Z,86280.63
2023-05-03T09:47:03.034Z,86201.06
2023-05-03T09:49:32.664Z,86300.06
2023-05-03T09:52:01.396Z,86269.06
2023-05-03T09:54:31.917Z,86262.06
2023-05-03T09:57:02.525Z,86282.47
2023-05-03T09:59:29.640Z,86298.09
2023-05-03T10:02:01.720Z,86229.06
2023-05-03T10:04:29.973Z,86282.28
2023-05-03T10:07:01.492Z,86299.00
2023-05-03T10:09:40.651Z,86301.75
2023-05-03T10:12:17.619Z,86301.75
2023-05-03T10:14:47.627Z,86293.41
2023-05-03T10:17:46.126Z,86139.53
2023-05-03T10:20:40.299Z,86281.75
2023-05-03T10:23:12.993Z,86250.13
2023-05-03T10:26:05.202Z,86256.03
2023-05-03T10:28:33.801Z,86229.81
2023-05-03T10:31:01.079Z,86214.16
2023-05-03T10:33:33.967Z,86268.34
2023-05-03T10:36:10.921Z,86181.81
2023-05-03T10:38:38.304Z,86125.31
2023-05-03T10:41:07.318Z,86122.63
2023-05-03T10:43:34.477Z,86251.69
2023-05-03T10:46:06.865Z,86252.91
2023-05-03T10:48:35.066Z,86064.91
2023-05-03T10:51:34.126Z,86027.94
2023-05-03T10:54:01.188Z,86188.63
2023-05-03T10:56:28.445Z,86109.19
2023-05-03T10:58:57.306Z,86232.84
2023-05-03T11:01:27.257Z,86153.34
2023-05-03T11:04:22.163Z,86194.41
2023-05-03T11:06:52.231Z,86121.81
2023-05-03T11:09:19.407Z,86215.13
2023-05-03T11:11:46.556Z,85970.88
2023-05-03T11:14:14.157Z,86070.81
2023-05-03T11:16:48.286Z,86114.22
2023-05-03T11:19:16.168Z,86130.44
2023-05-03T11:21:44.392Z,86218.13
2023-05-03T11:24:17.474Z,86167.50
2023-05-03T11:26:44.538Z,86233.97
2023-05-03T11:29:13.245Z,86244.34
2023-05-03T11:31:43.317Z,86235.16
2023-05-03T11:34:12.520Z,86242.06
2023-05-03T11:36:41.018Z,86192.16
2023-05-03T11:39:09.006Z,86200.03
2023-05-03T11:41:36.224Z,86208.66
2023-05-03T11:44:16.067Z,86233.88
2023-05-03T11:46:46.340Z,86180.19
2023-05-03T11:49:18.866Z,86152.00
2023-05-03T11:51:49.148Z,86193.75
2023-05-03T11:54:27.278Z,86219.41
2023-05-03T11:56:59.429Z,86219.66
2023-05-03T11:59:40.177Z,86183.13
2023-05-03T12:02:10.445Z,86171.97
2023-05-03T12:04:43.239Z,86189.31
2023-05-03T12:07:13.622Z,86207.09
2023-05-03T12:09:43.942Z,86195.81
2023-05-03T12:12:25.509Z,86203.31
2023-05-03T12:14:59.556Z,86194.47
2023-05-03T12:17:44.340Z,86211.25
2023-05-03T12:22:58.082Z,86214.09
2023-05-03T12:25:28.030Z,86189.97
2023-05-03T12:30:33.596Z,86118.56
2023-05-03T12:33:04.134Z,86175.63
2023-05-03T12:35:34.241Z,86190.06
2023-05-03T12:38:09.075Z,86188.88
2023-05-03T12:40:36.837Z,86181.25
2023-05-03T12:43:04.352Z,86184.44
2023-05-03T12:45:34.563Z,86147.94
2023-05-03T12:48:03.101Z,86157.66
2023-05-03T12:50:31.944Z,86130.22
2023-05-03T12:53:02.746Z,86038.13
2023-05-03T12:55:35.468Z,86156.56
2023-05-03T12:58:39.573Z,86099.56
2023-05-03T13:05:52.876Z,86107.41
2023-05-03T13:08:21.705Z,86098.19
2023-05-03T13:10:53.207Z,86081.06
2023-05-03T13:13:21.256Z,86114.56
2023-05-03T13:15:49.681Z,86085.78
2023-05-03T13:18:16.733Z,85921.28
2023-05-03T13:20:44.145Z,86098.50
2023-05-03T13:23:11.973Z,86131.44
2023-05-03T13:25:40.517Z,86075.28
2023-05-03T13:28:07.551Z,86100.47
2023-05-03T13:30:34.745Z,86135.06
2023-05-03T13:33:01.802Z,86113.91
2023-05-03T13:35:28.805Z,86104.88
2023-05-03T13:37:55.795Z,86062.25
2023-05-03T13:40:24.808Z,86084.81
2023-05-03T13:42:51.815Z,86101.22
2023-05-03T13:45:19.892Z,86119.06
2023-05-03T13:48:14.318Z,86103.88
2023-05-03T13:50:34.513Z,86106.53
2023-05-03T13:53:01.921Z,86064.19
2023-05-03T13:55:28.855Z,86052.00
2023-05-03T13:57:56.356Z,86104.28
2023-05-03T14:00:23.537Z,86081.19
2023-05-03T14:02:52.079Z,86024.28
2023-05-03T14:05:20.003Z,86054.41
2023-05-03T14:07:47.003Z,86043.41
2023-05-03T14:10:16.925Z,86114.72
2023-05-03T14:12:45.105Z,86088.09
2023-05-03T14:15:12.296Z,86089.16
2023-05-03T14:17:39.438Z,86069.88
2023-05-03T14:20:08.632Z,86076.06
2023-05-03T14:22:36.005Z,86097.94
2023-05-03T14:25:03.048Z,86066.59
2023-05-03T14:27:31.016Z,86107.66
2023-05-03T14:29:58.062Z,86110.97
2023-05-03T14:32:25.409Z,86044.53
2023-05-03T14:34:52.752Z,86111.78
2023-05-03T14:37:19.869Z,86070.34
2023-05-03T14:39:47.035Z,86098.41
2023-05-03T14:42:14.152Z,86011.31
2023-05-03T14:44:41.368Z,86055.91
2023-05-03T14:47:08.480Z,86091.13
2023-05-03T14:49:40.626Z,86097.25
2023-05-03T14:52:08.479Z,86020.16
2023-05-03T14:54:36.710Z,86083.31
2023-05-03T14:57:04.782Z,86072.13
2023-05-03T14:59:33.476Z,86072.19
2023-05-03T15:02:01.190Z,86026.91
2023-05-03T15:04:29.348Z,86056.28
2023-05-03T15:07:00.956Z,86058.97
2023-05-03T15:09:28.527Z,86033.47
2023-05-03T15:11:55.492Z,86009.59
2023-05-03T15:14:22.579Z,86072.22
2023-05-03T15:16:49.705Z,86064.38
2023-05-03T15:19:16.788Z,86054.91
2023-05-03T15:21:47.853Z,86098.91
2023-05-03T15:24:16.641Z,86058.06
2023-05-03T15:26:43.944Z,86097.84
2023-05-03T15:29:11.266Z,86036.94
2023-05-03T15:31:38.694Z,86056.88
2023-05-03T15:34:06.621Z,86093.88
2023-05-03T15:36:34.189Z,86035.03
2023-05-03T15:39:01.192Z,86051.56
2023-05-03T15:41:28.442Z,86042.13
2023-05-03T15:43:56.225Z,86018.81
2023-05-03T15:46:23.496Z,86055.34
2023-05-03T15:48:55.129Z,86072.09
2023-05-03T15:51:22.265Z,86082.13
2023-05-03T15:53:49.896Z,86065.72
2023-05-03T15:56:17.043Z,86037.00
2023-05-03T15:58:44.116Z,86056.97
2023-05-03T16:01:11.038Z,86047.75
2023-05-03T16:03:38.113Z,86051.97
2023-05-03T16:06:06.149Z,85987.50
2023-05-03T16:08:33.132Z,86023.41
2023-05-03T16:11:00.346Z,86017.91
2023-05-03T16:13:27.958Z,86050.09
2023-05-03T16:15:58.223Z,86083.91
2023-05-03T16:18:27.039Z,86045.44
2023-05-03T16:20:55.667Z,86030.47
2023-05-03T16:23:22.653Z,86068.84
2023-05-03T16:25:49.580Z,86096.50
2023-05-03T16:28:19.216Z,86050.56
2023-05-03T16:30:46.416Z,86065.13
2023-05-03T16:33:13.461Z,86094.63
2023-05-03T16:35:42.838Z,86070.06
2023-05-03T16:38:10.059Z,86105.16
2023-05-03T16:40:40.223Z,86088.63
2023-05-03T16:43:08.001Z,86119.06
2023-05-03T16:45:35.077Z,86091.06
2023-05-03T16:48:04.785Z,86116.38
2023-05-03T16:50:33.195Z,86130.28
2023-05-03T16:53:00.291Z,86089.84
2023-05-03T16:55:27.232Z,86072.59
2023-05-03T16:57:54.129Z,86126.19
2023-05-03T17:00:22.012Z,86132.41
2023-05-03T17:02:49.316Z,86074.44
2023-05-03T17:05:16.434Z,86075.78
2023-05-03T17:07:43.418Z,86123.28
2023-05-03T17:10:10.767Z,86072.28
2023-05-03T17:12:37.749Z,86058.41
2023-05-03T17:15:05.491Z,86110.56
2023-05-03T17:17:32.920Z,86107.03
2023-05-03T17:20:00.019Z,86030.88
2023-05-03T17:22:26.984Z,86110.56
2023-05-03T17:24:55.398Z,86025.97
2023-05-03T17:27:24.417Z,86054.88
2023-05-03T17:29:51.787Z,86125.72
2023-05-03T17:32:18.749Z,86065.31
2023-05-03T17:34:46.121Z,86060.31
2023-05-03T17:37:13.170Z,86125.56
2023-05-03T17:39:40.334Z,86128.97
2023-05-03T17:42:08.246Z,86111.13
2023-05-03T17:44:35.300Z,86103.13
2023-05-03T17:47:02.467Z,86109.44
2023-05-03T17:49:33.166Z,86032.56
2023-05-03T17:52:00.687Z,86082.22
2023-05-03T17:54:30.640Z,86016.38
2023-05-03T17:56:57.771Z,86089.09
2023-05-03T17:59:24.857Z,86148.94
2023-05-03T18:01:52.210Z,86126.88
2023-05-03T18:04:19.502Z,85997.25
2023-05-03T18:06:46.726Z,86146.22
2023-05-03T18:09:14.023Z,86145.44
2023-05-03T18:11:41.580Z,86156.53
2023-05-03T18:14:08.699Z,86145.47
2023-05-03T18:16:36.891Z,86077.38
2023-05-03T18:19:04.563Z,86150.25
2023-05-03T18:21:31.687Z,86130.97
2023-05-03T18:23:58.775Z,86141.44
2023-05-03T18:26:25.799Z,86168.84
2023-05-03T18:28:53.727Z,86096.72
2023-05-03T18:31:21.642Z,86140.13
2023-05-03T18:33:49.153Z,86135.91
2023-05-03T18:36:17.761Z,86120.84
2023-05-03T18:38:46.896Z,86133.16
2023-05-03T18:41:16.089Z,86131.81
2023-05-03T18:43:47.341Z,86178.53
2023-05-03T18:46:19.044Z,86163.38
2023-05-03T18:48:47.868Z,86004.63
2023-05-03T18:51:15.103Z,86168.84
2023-05-03T18:53:43.682Z,86166.16
2023-05-03T18:56:11.070Z,86176.41
2023-05-03T18:58:38.382Z,86103.53
2023-05-03T19:01:06.070Z,86170.78
2023-05-03T19:03:33.560Z,86117.97
2023-05-03T19:06:04.845Z,86149.50
2023-05-03T19:08:32.302Z,86142.72
2023-05-03T19:11:14.392Z,86170.91
2023-05-03T19:13:42.723Z,86157.03
2023-05-03T19:16:09.838Z,86097.19
2023-05-03T19:18:44.543Z,86004.50
2023-05-03T19:21:19.371Z,86155.03
2023-05-03T19:23:46.486Z,86136.13
2023-05-03T19:26:13.608Z,86173.91
2023-05-03T19:28:40.588Z,86112.69
2023-05-03T19:31:10.888Z,86104.34
2023-05-03T19:33:38.242Z,86154.47
2023-05-03T19:36:08.534Z,86097.25
2023-05-03T19:38:36.578Z,86076.63
2023-05-03T19:41:09.803Z,86075.56
2023-05-03T19:43:36.899Z,86130.59
2023-05-03T19:46:04.090Z,86154.50
2023-05-03T19:48:31.203Z,86096.69
2023-05-03T19:51:01.486Z,86060.22
2023-05-03T19:53:28.910Z,86106.94
2023-05-03T19:56:00.654Z,86094.41
2023-05-03T19:58:28.391Z,86142.56
2023-05-03T20:00:57.898Z,86109.69
2023-05-03T20:03:24.927Z,86150.19
2023-05-03T20:05:52.206Z,86095.97
2023-05-03T20:08:19.741Z,86065.28
2023-05-03T20:10:47.044Z,86114.81
2023-05-03T20:13:14.155Z,86134.06
2023-05-03T20:15:41.800Z,86074.22
2023-05-03T20:18:08.783Z,86103.06
2023-05-03T20:20:36.786Z,86116.78
2023-05-03T20:23:07.947Z,86111.16
2023-05-03T20:25:34.885Z,86076.09
2023-05-03T20:28:01.849Z,86080.84
2023-05-03T20:30:31.393Z,86094.63
2023-05-03T20:32:59.259Z,86030.66
2023-05-03T20:35:27.275Z,86031.19
2023-05-03T20:37:54.296Z,86076.94
2023-05-03T20:40:21.368Z,86106.25
2023-05-03T20:42:48.454Z,86082.28
2023-05-03T20:45:15.749Z,86108.41
2023-05-03T20:47:42.781Z,86109.88
2023-05-03T20:50:09.999Z,86109.13
2023-05-03T20:52:37.074Z,86043.25
2023-05-03T20:55:04.176Z,86094.66
2023-05-03T20:57:31.571Z,86075.66
2023-05-03T20:59:59.451Z,86022.00
2023-05-03T21:02:26.555Z,86091.97
2023-05-03T21:04:53.685Z,86083.66
2023-05-03T21:07:20.800Z,86094.59
2023-05-03T21:09:47.866Z,86050.69
2023-05-03T21:12:14.834Z,86045.91
2023-05-03T21:14:41.766Z,86058.88
2023-05-03T21:17:09.982Z,86107.16
2023-05-03T21:19:36.852Z,86057.63
2023-05-03T21:22:03.978Z,86089.81
2023-05-03T21:24:31.318Z,86107.03
2023-05-03T21:26:58.978Z,86035.56
2023-05-03T21:29:25.981Z,86092.03
2023-05-03T21:31:53.217Z,86059.00
2023-05-03T21:34:20.297Z,86025.38
2023-05-03T21:36:47.287Z,86060.44
2023-05-03T21:39:14.306Z,86091.97
2023-05-03T21:41:41.349Z,86058.97
2023-05-03T21:44:08.319Z,86069.19
2023-05-03T21:46:36.315Z,86049.22
2023-05-03T21:49:03.648Z,86093.88
2023-05-03T21:51:32.537Z,86005.22
2023-05-03T21:53:59.551Z,86074.66
2023-05-03T21:56:26.854Z,86038.28
2023-05-03T21:58:54.300Z,86008.69
2023-05-03T22:01:21.951Z,86027.81
2023-05-03T22:03:53.134Z,86032.56
2023-05-03T22:06:20.330Z,86054.53
2023-05-03T22:08:47.875Z,86071.00
2023-05-03T22:11:14.960Z,86061.31
2023-05-03T22:14:02.977Z,86037.22
2023-05-03T22:16:33.231Z,85985.66
2023-05-03T22:19:00.420Z,86069.00
2023-05-03T22:21:27.615Z,86050.28
2023-05-03T22:23:54.556Z,86039.34
2023-05-03T22:26:21.622Z,86061.28
2023-05-03T22:28:50.459Z,85980.22
2023-05-03T22:31:18.171Z,85996.66
2023-05-03T22:33:45.664Z,86061.31
2023-05-03T22:36:13.204Z,85937.63
2023-05-03T22:38:42.725Z,85995.28
2023-05-03T22:41:11.845Z,86048.81
2023-05-03T22:43:38.869Z,86024.06
2023-05-03T22:46:06.287Z,86008.25
2023-05-03T22:48:34.222Z,86014.47
2023-05-03T22:51:01.182Z,86045.97
2023-05-03T22:53:28.512Z,86006.91
2023-05-03T22:55:59.188Z,86004.78
2023-05-03T22:58:26.320Z,85939.00
2023-05-03T23:00:53.789Z,85999.38
2023-05-03T23:03:22.151Z,86003.91
2023-05-03T23:05:51.528Z,86024.38
2023-05-03T23:08:19.000Z,86031.41
2023-05-03T23:10:45.955Z,86017.56
2023-05-03T23:13:13.513Z,86021.56
2023-05-03T23:15:44.813Z,85961.19
2023-05-03T23:18:11.765Z,86023.13
2023-05-03T23:20:38.650Z,85986.00
2023-05-03T23:23:05.755Z,86013.41
2023-05-03T23:25:32.806Z,86007.78
2023-05-03T23:27:59.706Z,85961.78
2023-05-03T23:30:27.269Z,85954.41
2023-05-03T23:32:54.770Z,85956.50
2023-05-03T23:35:22.181Z,85980.53
2023-05-03T23:37:49.201Z,85990.72
2023-05-03T23:40:16.313Z,85956.41
2023-05-03T23:42:43.876Z,85949.44
2023-05-03T23:45:11.336Z,85882.84
2023-05-03T23:47:38.371Z,85967.97
2023-05-03T23:50:06.280Z,85906.31
2023-05-03T23:52:33.441Z,85961.81
2023-05-03T23:55:00.469Z,85966.63
2023-05-03T23:57:27.417Z,85913.63
2023-05-03T23:59:54.470Z,85894.38
